Time;durP1;ratioP1;P1;durP2;ratioP2;P2;SDS_P1;SDS_P2;PMS_P1;PMS_P2;Temp;Humidity;BMP_temperature;BMP_pressure;BME280_temperature;BME280_humidity;BME280_pressure;Samples;Min_cycle;Max_cycle;Signal;HPM_P1;HPM_P2
2021/08/10 00:00:14;;;;;;;;;;;15.40;99.90;;;;;;5052034;28;19904;-52
2021/08/10 00:02:40;;;;;;;;;;;15.30;99.90;;;;;;5052144;28;19905;-52
2021/08/10 00:05:06;;;;;;;;;;;15.40;99.90;;;;;;5052018;28;19916;-51
2021/08/10 00:07:32;;;;;;;;;;;15.40;99.90;;;;;;5051944;28;19905;-51
2021/08/10 00:09:57;;;;;;;;;;;15.30;99.90;;;;;;5051864;28;20261;-51
2021/08/10 00:12:23;;;;;;;;;;;15.30;99.90;;;;;;5051884;28;19905;-51
2021/08/10 00:14:48;;;;;;;;;;;15.30;99.90;;;;;;5052025;28;19909;-52
2021/08/10 00:17:14;;;;;;;;;;;15.30;99.90;;;;;;5051716;28;20369;-52
2021/08/10 00:19:39;;;;;;;;;;;15.30;99.90;;;;;;5051697;28;19912;-52
2021/08/10 00:22:05;;;;;;;;;;;15.30;99.90;;;;;;5051634;28;19913;-52
2021/08/10 00:24:30;;;;;;;;;;;15.30;99.90;;;;;;5051835;28;19912;-52
2021/08/10 00:26:58;;;;;;;;;;;15.40;99.90;;;;;;5051772;28;19913;-52
2021/08/10 00:29:24;;;;;;;;;;;15.40;99.90;;;;;;5051809;28;19912;-51
2021/08/10 00:31:49;;;;;;;;;;;15.40;99.90;;;;;;5051694;28;19905;-52
2021/08/10 00:34:15;;;;;;;;;;;15.40;99.90;;;;;;5051477;28;19912;-52
2021/08/10 00:36:40;;;;;;;;;;;15.40;99.90;;;;;;5051493;28;19909;-50
2021/08/10 00:39:06;;;;;;;;;;;15.40;99.90;;;;;;5051485;28;19909;-51
2021/08/10 00:41:32;;;;;;;;;;;15.40;99.90;;;;;;5051407;28;19999;-51
2021/08/10 00:43:57;;;;;;;;;;;15.30;99.90;;;;;;5051540;28;19959;-50
2021/08/10 00:46:23;;;;;;;;;;;15.30;99.90;;;;;;5051349;28;19904;-50
2021/08/10 00:48:48;;;;;;;;;;;15.30;99.90;;;;;;5051339;28;20323;-51
2021/08/10 00:51:14;;;;;;;;;;;15.30;99.90;;;;;;5051295;28;19912;-51
2021/08/10 00:53:40;;;;;;;;;;;15.20;99.90;;;;;;5051343;28;19917;-51
2021/08/10 00:56:06;;;;;;;;;;;15.20;99.90;;;;;;5051326;28;19920;-51
2021/08/10 00:58:33;;;;;;;;;;;15.20;99.90;;;;;;5051581;28;19991;-51
2021/08/10 01:00:58;;;;;;;;;;;15.10;99.90;;;;;;5051316;28;19904;-50
2021/08/10 01:03:24;;;;;;;;;;;15.10;99.90;;;;;;5052074;28;19915;-50
2021/08/10 01:05:50;;;;;;;;;;;15.10;99.90;;;;;;5055667;28;19905;-50
2021/08/10 01:08:20;;;;;;;;;;;15.10;99.90;;;;;;5055669;28;19915;-50
2021/08/10 01:10:52;;;;;;;;;;;15.10;99.90;;;;;;5055340;28;20396;-50
2021/08/10 01:13:20;;;;;;;;;;;15.10;99.90;;;;;;5055427;28;20325;-51
2021/08/10 01:15:55;;;;;;;;;;;15.10;99.90;;;;;;5055463;28;19938;-50
2021/08/10 01:18:41;;;;;;;;;;;15.00;99.90;;;;;;5055211;28;19911;-51
2021/08/10 01:21:13;;;;;;;;;;;15.10;99.90;;;;;;5054253;28;19905;-51
2021/08/10 01:23:39;;;;;;;;;;;15.10;99.90;;;;;;5053775;28;20354;-51
2021/08/10 01:26:05;;;;;;;;;;;15.00;99.90;;;;;;5055109;28;19912;-49
2021/08/10 01:28:37;;;;;;;;;;;15.10;99.90;;;;;;5054934;28;19992;-51
2021/08/10 01:31:06;;;;;;;;;;;15.00;99.90;;;;;;5055083;28;19909;-51
2021/08/10 01:33:33;;;;;;;;;;;15.00;99.90;;;;;;5055013;28;20464;-51
2021/08/10 01:35:59;;;;;;;;;;;15.10;99.90;;;;;;5054782;28;19959;-51
2021/08/10 01:38:25;;;;;;;;;;;15.00;99.90;;;;;;5054764;28;19948;-50
2021/08/10 01:40:51;;;;;;;;;;;15.00;99.90;;;;;;5054723;28;20315;-51
2021/08/10 01:43:17;;;;;;;;;;;15.00;99.90;;;;;;5054741;28;19992;-51
2021/08/10 01:45:43;;;;;;;;;;;15.00;99.90;;;;;;5054765;28;19948;-50
2021/08/10 01:48:10;;;;;;;;;;;15.00;99.90;;;;;;5054734;28;19904;-50
2021/08/10 01:50:36;;;;;;;;;;;15.00;99.90;;;;;;5054642;28;19944;-51
2021/08/10 01:53:02;;;;;;;;;;;15.00;99.90;;;;;;5054306;28;19955;-51
2021/08/10 01:55:28;;;;;;;;;;;15.00;99.90;;;;;;5054501;28;19968;-51
2021/08/10 01:57:55;;;;;;;;;;;15.00;99.90;;;;;;5054314;28;19905;-51
2021/08/10 02:00:21;;;;;;;;;;;14.90;99.90;;;;;;5054656;28;19904;-51
2021/08/10 02:02:47;;;;;;;;;;;14.90;99.90;;;;;;5054285;28;19905;-50
2021/08/10 02:05:13;;;;;;;;;;;14.90;99.90;;;;;;5054352;28;19930;-51
2021/08/10 02:07:38;;;;;;;;;;;14.90;99.90;;;;;;5054192;28;19905;-51
2021/08/10 02:10:05;;;;;;;;;;;14.90;99.90;;;;;;5052995;28;19905;-50
2021/08/10 02:12:30;;;;;;;;;;;14.80;99.90;;;;;;5054201;28;19912;-51
2021/08/10 02:14:57;;;;;;;;;;;14.80;99.90;;;;;;5053838;28;20349;-52
2021/08/10 02:17:22;;;;;;;;;;;14.70;99.90;;;;;;5053988;28;20306;-51
2021/08/10 02:19:48;;;;;;;;;;;14.70;99.90;;;;;;5054173;28;20361;-51
2021/08/10 02:22:14;;;;;;;;;;;14.70;99.90;;;;;;5054016;28;20006;-52
2021/08/10 02:24:43;;;;;;;;;;;14.70;99.90;;;;;;5054108;28;20372;-51
2021/08/10 02:27:10;;;;;;;;;;;14.70;99.90;;;;;;5052724;28;20258;-51
2021/08/10 02:29:40;;;;;;;;;;;14.60;99.90;;;;;;5053809;28;19978;-52
2021/08/10 02:32:07;;;;;;;;;;;14.60;99.90;;;;;;5053688;28;20253;-52
2021/08/10 02:34:32;;;;;;;;;;;14.60;99.90;;;;;;5053715;28;19904;-51
2021/08/10 02:36:59;;;;;;;;;;;14.60;99.90;;;;;;5053783;28;19915;-51
2021/08/10 02:39:25;;;;;;;;;;;14.60;99.90;;;;;;5053826;28;19915;-51
2021/08/10 02:41:51;;;;;;;;;;;14.60;99.90;;;;;;5053650;28;19905;-52
2021/08/10 02:44:17;;;;;;;;;;;14.60;99.90;;;;;;5052439;28;19937;-52
2021/08/10 02:46:42;;;;;;;;;;;14.60;99.90;;;;;;5053856;28;19944;-52
2021/08/10 02:49:09;;;;;;;;;;;14.60;99.90;;;;;;5052266;28;19904;-53
2021/08/10 02:51:35;;;;;;;;;;;14.60;99.90;;;;;;5053342;28;19908;-53
2021/08/10 02:54:00;;;;;;;;;;;14.60;99.90;;;;;;5053579;28;20366;-52
2021/08/10 02:56:29;;;;;;;;;;;14.50;99.90;;;;;;5053336;28;19916;-52
2021/08/10 02:59:17;;;;;;;;;;;14.60;99.90;;;;;;5053247;28;20380;-52
2021/08/10 03:01:47;;;;;;;;;;;14.60;99.90;;;;;;5052694;28;20429;-52
2021/08/10 03:04:14;;;;;;;;;;;14.50;99.90;;;;;;5053731;28;19931;-52
2021/08/10 03:06:39;;;;;;;;;;;14.50;99.90;;;;;;5053074;28;20362;-53
2021/08/10 03:09:06;;;;;;;;;;;14.50;99.90;;;;;;5053015;28;19909;-52
2021/08/10 03:11:39;;;;;;;;;;;14.50;99.90;;;;;;5052990;28;19905;-52
2021/08/10 03:14:05;;;;;;;;;;;14.50;99.90;;;;;;5053184;28;19909;-53
2021/08/10 03:16:31;;;;;;;;;;;14.50;99.90;;;;;;5053154;28;20274;-52
2021/08/10 03:18:58;;;;;;;;;;;14.60;99.90;;;;;;5052843;28;19905;-52
2021/08/10 03:21:24;;;;;;;;;;;14.50;99.90;;;;;;5052811;28;19913;-52
2021/08/10 03:23:52;;;;;;;;;;;14.50;99.90;;;;;;5052922;28;20273;-51
2021/08/10 03:26:20;;;;;;;;;;;14.50;99.90;;;;;;5051860;28;19908;-51
2021/08/10 03:28:45;;;;;;;;;;;14.50;99.90;;;;;;5052768;28;20674;-52
2021/08/10 03:31:11;;;;;;;;;;;14.60;99.90;;;;;;5052738;28;19958;-52
2021/08/10 03:33:37;;;;;;;;;;;14.60;99.90;;;;;;5052651;28;19966;-53
2021/08/10 03:36:04;;;;;;;;;;;14.70;99.90;;;;;;5052375;28;19913;-52
2021/08/10 03:38:30;;;;;;;;;;;14.70;99.90;;;;;;5052719;28;20430;-52
2021/08/10 03:40:55;;;;;;;;;;;14.70;99.90;;;;;;5052572;28;19912;-53
2021/08/10 03:43:21;;;;;;;;;;;14.70;99.90;;;;;;5052348;28;20285;-53
2021/08/10 03:45:49;;;;;;;;;;;14.60;99.90;;;;;;5052472;28;19950;-53
2021/08/10 03:48:15;;;;;;;;;;;14.60;99.90;;;;;;5052184;28;19913;-54
2021/08/10 03:50:42;;;;;;;;;;;14.70;99.90;;;;;;5052152;28;20361;-53
2021/08/10 03:53:08;;;;;;;;;;;14.70;99.90;;;;;;5051899;28;19920;-53
2021/08/10 03:55:33;;;;;;;;;;;14.70;99.90;;;;;;5052218;28;19935;-54
2021/08/10 03:57:59;;;;;;;;;;;14.70;99.90;;;;;;5052042;28;19999;-53
2021/08/10 04:00:25;;;;;;;;;;;14.70;99.90;;;;;;5052108;28;19960;-53
2021/08/10 04:02:51;;;;;;;;;;;14.70;99.90;;;;;;5050700;28;19905;-53
2021/08/10 04:05:17;;;;;;;;;;;14.70;99.90;;;;;;5052158;28;20357;-53
2021/08/10 04:07:42;;;;;;;;;;;14.80;99.90;;;;;;5051813;28;19905;-52
2021/08/10 04:10:09;;;;;;;;;;;14.80;99.90;;;;;;5052061;28;19958;-53
2021/08/10 04:12:35;;;;;;;;;;;14.80;99.90;;;;;;5050561;28;19948;-53
2021/08/10 04:15:00;;;;;;;;;;;14.80;99.90;;;;;;5051946;28;19959;-53
2021/08/10 04:17:27;;;;;;;;;;;14.80;99.90;;;;;;5051682;28;19920;-53
2021/08/10 04:19:53;;;;;;;;;;;14.80;99.90;;;;;;5051706;28;19909;-53
2021/08/10 04:22:19;;;;;;;;;;;14.80;99.90;;;;;;5051733;28;20281;-53
2021/08/10 04:24:45;;;;;;;;;;;14.70;99.90;;;;;;5051965;28;19913;-54
2021/08/10 04:27:14;;;;;;;;;;;14.70;99.90;;;;;;5051795;28;19933;-55
2021/08/10 04:29:40;;;;;;;;;;;14.70;99.90;;;;;;5051605;28;20389;-55
2021/08/10 04:32:06;;;;;;;;;;;14.70;99.90;;;;;;5051877;28;19936;-55
2021/08/10 04:34:32;;;;;;;;;;;14.70;99.90;;;;;;5050310;28;19904;-56
2021/08/10 04:36:57;;;;;;;;;;;14.70;99.90;;;;;;5051376;28;20413;-56
2021/08/10 04:39:26;;;;;;;;;;;14.80;99.90;;;;;;5050183;28;20008;-55
2021/08/10 04:41:52;;;;;;;;;;;14.80;99.90;;;;;;5051437;28;20433;-55
2021/08/10 04:44:17;;;;;;;;;;;14.70;99.90;;;;;;5050221;28;20273;-55
2021/08/10 04:46:43;;;;;;;;;;;14.70;99.90;;;;;;5051416;28;19905;-55
2021/08/10 04:49:08;;;;;;;;;;;14.80;99.90;;;;;;5051256;28;19944;-55
2021/08/10 04:51:34;;;;;;;;;;;14.80;99.90;;;;;;5051276;28;19909;-54
2021/08/10 04:53:59;;;;;;;;;;;14.80;99.90;;;;;;5051246;28;19916;-55
2021/08/10 04:56:25;;;;;;;;;;;14.80;99.90;;;;;;5051496;28;20015;-55
2021/08/10 04:58:50;;;;;;;;;;;14.80;99.90;;;;;;5051193;28;19911;-55
2021/08/10 05:01:16;;;;;;;;;;;14.80;99.90;;;;;;5051154;28;20001;-55
2021/08/10 05:03:41;;;;;;;;;;;14.80;99.90;;;;;;5051309;28;19905;-55
2021/08/10 05:06:07;;;;;;;;;;;14.80;99.90;;;;;;5051085;28;20007;-55
2021/08/10 05:08:32;;;;;;;;;;;14.80;99.90;;;;;;5049759;28;20030;-59
2021/08/10 05:10:59;;;;;;;;;;;14.80;99.90;;;;;;5051468;28;20273;-58
2021/08/10 05:13:24;;;;;;;;;;;14.80;99.90;;;;;;5051296;28;19905;-55
2021/08/10 05:15:50;;;;;;;;;;;14.90;99.90;;;;;;5051121;28;19912;-55
2021/08/10 05:18:15;;;;;;;;;;;14.90;99.90;;;;;;5051146;28;20404;-55
2021/08/10 05:20:41;;;;;;;;;;;14.90;99.90;;;;;;5051575;28;19927;-55
2021/08/10 05:23:07;;;;;;;;;;;14.90;99.90;;;;;;5051059;28;19911;-55
2021/08/10 05:25:32;;;;;;;;;;;14.90;99.90;;;;;;5051362;28;20224;-55
2021/08/10 05:27:58;;;;;;;;;;;14.90;99.90;;;;;;5050919;28;19909;-55
2021/08/10 05:30:23;;;;;;;;;;;15.00;99.90;;;;;;5051258;28;19911;-55
2021/08/10 05:32:49;;;;;;;;;;;15.00;99.90;;;;;;5051002;28;20418;-55
2021/08/10 05:35:14;;;;;;;;;;;15.10;99.90;;;;;;5051155;28;20383;-55
2021/08/10 05:37:40;;;;;;;;;;;15.10;99.90;;;;;;5050907;28;19909;-55
2021/08/10 05:40:06;;;;;;;;;;;15.10;99.90;;;;;;5051123;28;20369;-55
2021/08/10 05:42:31;;;;;;;;;;;15.10;99.90;;;;;;5051033;28;20285;-55
2021/08/10 05:44:57;;;;;;;;;;;15.10;99.90;;;;;;5051044;28;19931;-54
2021/08/10 05:47:22;;;;;;;;;;;15.20;99.90;;;;;;5050814;28;19905;-55
2021/08/10 05:49:48;;;;;;;;;;;15.20;99.90;;;;;;5052216;28;20354;-55
2021/08/10 05:52:14;;;;;;;;;;;15.20;99.90;;;;;;5054374;28;20021;-55
2021/08/10 05:54:39;;;;;;;;;;;15.20;99.90;;;;;;5054657;28;19908;-55
2021/08/10 05:57:05;;;;;;;;;;;15.30;99.90;;;;;;5054407;28;19920;-55
2021/08/10 05:59:30;;;;;;;;;;;15.30;99.90;;;;;;5054245;28;19948;-56
2021/08/10 06:01:59;;;;;;;;;;;15.30;99.90;;;;;;5054390;28;19905;-55
2021/08/10 06:04:25;;;;;;;;;;;15.40;99.90;;;;;;5054322;28;19991;-55
2021/08/10 06:06:51;;;;;;;;;;;15.40;99.90;;;;;;5054516;28;20163;-56
2021/08/10 06:09:16;;;;;;;;;;;15.50;99.90;;;;;;5054147;28;19971;-55
2021/08/10 06:11:42;;;;;;;;;;;15.50;99.90;;;;;;5054320;28;19909;-55
2021/08/10 06:14:07;;;;;;;;;;;15.60;99.90;;;;;;5054311;28;19905;-55
2021/08/10 06:16:33;;;;;;;;;;;15.60;99.90;;;;;;5052675;28;19913;-55
2021/08/10 06:18:59;;;;;;;;;;;15.60;99.90;;;;;;5052809;28;20020;-55
2021/08/10 06:21:25;;;;;;;;;;;15.60;99.90;;;;;;5053961;28;20384;-54
2021/08/10 06:23:51;;;;;;;;;;;15.60;99.90;;;;;;5054052;28;19909;-54
2021/08/10 06:26:16;;;;;;;;;;;15.70;99.90;;;;;;5053777;28;19905;-54
2021/08/10 06:28:42;;;;;;;;;;;15.60;99.90;;;;;;5053834;28;20336;-54
2021/08/10 06:31:09;;;;;;;;;;;15.60;99.90;;;;;;5053880;28;19904;-54
2021/08/10 06:33:34;;;;;;;;;;;15.60;99.90;;;;;;5053854;28;20266;-54
2021/08/10 06:36:00;;;;;;;;;;;15.70;99.90;;;;;;5053565;28;19953;-53
2021/08/10 06:38:25;;;;;;;;;;;15.80;99.90;;;;;;5053622;28;19943;-53
2021/08/10 06:40:51;;;;;;;;;;;15.90;99.90;;;;;;5053519;28;20284;-53
2021/08/10 06:43:16;;;;;;;;;;;15.90;99.90;;;;;;5053388;28;19904;-54
2021/08/10 06:45:42;;;;;;;;;;;16.00;99.90;;;;;;5054047;28;19905;-54
2021/08/10 06:48:07;;;;;;;;;;;15.90;99.90;;;;;;5053576;28;19913;-54
2021/08/10 06:50:33;;;;;;;;;;;16.00;99.90;;;;;;5053851;28;20000;-53
2021/08/10 06:52:59;;;;;;;;;;;16.10;99.90;;;;;;5053212;28;20269;-53
2021/08/10 06:55:24;;;;;;;;;;;16.20;99.90;;;;;;5053479;28;20393;-54
2021/08/10 06:57:50;;;;;;;;;;;16.30;99.90;;;;;;5053292;28;19908;-54
2021/08/10 07:00:15;;;;;;;;;;;16.50;99.90;;;;;;5053199;28;19908;-54
2021/08/10 07:02:41;;;;;;;;;;;16.60;99.90;;;;;;5053294;28;19905;-54
2021/08/10 07:05:07;;;;;;;;;;;16.80;99.90;;;;;;5053259;28;20412;-54
2021/08/10 07:07:32;;;;;;;;;;;16.70;99.90;;;;;;5053358;28;19911;-54
2021/08/10 07:09:58;;;;;;;;;;;16.50;99.90;;;;;;5053092;28;19958;-53
2021/08/10 07:12:24;;;;;;;;;;;16.40;99.90;;;;;;5051836;28;19908;-54
2021/08/10 07:14:49;;;;;;;;;;;16.40;99.90;;;;;;5053227;28;19912;-53
2021/08/10 07:17:15;;;;;;;;;;;16.50;99.90;;;;;;5052885;28;20416;-54
2021/08/10 07:19:40;;;;;;;;;;;17.00;99.90;;;;;;5052885;28;19909;-54
2021/08/10 07:22:06;;;;;;;;;;;17.90;99.90;;;;;;5052783;28;19940;-54
2021/08/10 07:24:31;;;;;;;;;;;19.10;99.90;;;;;;5053116;28;19955;-53
2021/08/10 07:26:57;;;;;;;;;;;19.50;99.90;;;;;;5052987;28;20380;-55
2021/08/10 07:29:23;;;;;;;;;;;19.80;99.90;;;;;;5051652;28;19912;-55
2021/08/10 07:31:48;;;;;;;;;;;19.70;99.90;;;;;;5052671;28;19905;-54
2021/08/10 07:34:14;;;;;;;;;;;19.40;99.90;;;;;;5052716;28;19905;-55
2021/08/10 07:36:39;;;;;;;;;;;19.50;99.90;;;;;;5052635;28;19999;-54
2021/08/10 07:39:05;;;;;;;;;;;19.60;99.90;;;;;;5052981;28;19963;-54
2021/08/10 07:41:31;;;;;;;;;;;19.40;99.90;;;;;;5052665;28;20258;-54
2021/08/10 07:43:57;;;;;;;;;;;18.90;99.90;;;;;;5052585;28;19927;-54
2021/08/10 07:46:22;;;;;;;;;;;18.40;99.90;;;;;;5052442;28;19951;-54
2021/08/10 07:48:48;;;;;;;;;;;18.30;99.90;;;;;;5052316;28;20358;-54
2021/08/10 07:51:13;;;;;;;;;;;18.20;99.90;;;;;;5052245;28;19908;-54
2021/08/10 07:53:39;;;;;;;;;;;18.30;99.90;;;;;;5051020;28;19921;-54
2021/08/10 07:56:05;;;;;;;;;;;18.30;99.90;;;;;;5052208;28;19909;-53
2021/08/10 07:58:30;;;;;;;;;;;18.30;99.90;;;;;;5052567;28;19951;-54
2021/08/10 08:00:57;;;;;;;;;;;18.20;99.90;;;;;;5052143;28;19967;-54
2021/08/10 08:03:23;;;;;;;;;;;18.00;99.90;;;;;;5052142;28;19904;-54
2021/08/10 08:05:48;;;;;;;;;;;18.00;99.90;;;;;;5052215;28;19995;-54
2021/08/10 08:08:14;;;;;;;;;;;18.00;99.90;;;;;;5051964;28;19999;-54
2021/08/10 08:10:40;;;;;;;;;;;18.00;99.90;;;;;;5051943;28;19940;-54
2021/08/10 08:13:05;;;;;;;;;;;18.00;99.90;;;;;;5051496;28;19909;-53
2021/08/10 08:15:33;;;;;;;;;;;18.20;99.90;;;;;;5051978;28;19955;-53
2021/08/10 08:17:58;;;;;;;;;;;18.10;99.90;;;;;;5051697;28;20011;-54
2021/08/10 08:20:24;;;;;;;;;;;18.30;99.90;;;;;;5051899;28;20339;-54
2021/08/10 08:22:49;;;;;;;;;;;18.40;99.90;;;;;;5050530;28;20254;-54
2021/08/10 08:25:15;;;;;;;;;;;18.60;99.90;;;;;;5051105;28;19947;-54
2021/08/10 08:27:40;;;;;;;;;;;18.50;99.90;;;;;;5052731;28;19912;-54
2021/08/10 08:30:06;;;;;;;;;;;18.70;99.90;;;;;;5052882;28;20003;-53
2021/08/10 08:32:32;;;;;;;;;;;19.00;99.90;;;;;;5052724;28;19909;-54
2021/08/10 08:34:57;;;;;;;;;;;19.20;99.90;;;;;;5052855;28;19904;-55
2021/08/10 08:37:23;;;;;;;;;;;19.30;99.90;;;;;;5052522;28;20305;-54
2021/08/10 08:39:49;;;;;;;;;;;19.00;99.90;;;;;;5052621;28;19912;-54
2021/08/10 08:42:14;;;;;;;;;;;18.90;99.90;;;;;;5052574;28;19905;-54
2021/08/10 08:44:40;;;;;;;;;;;19.00;99.90;;;;;;5052126;28;19908;-54
2021/08/10 08:47:06;;;;;;;;;;;18.90;99.90;;;;;;5051837;28;19912;-54
2021/08/10 08:49:33;;;;;;;;;;;18.70;99.90;;;;;;5051447;28;19912;-54
2021/08/10 08:51:59;;;;;;;;;;;18.90;99.90;;;;;;5051381;28;20284;-54
2021/08/10 08:54:25;;;;;;;;;;;19.00;99.90;;;;;;5051403;28;19912;-55
2021/08/10 08:56:50;;;;;;;;;;;19.30;99.90;;;;;;5051890;28;19916;-54
2021/08/10 08:59:17;;;;;;;;;;;19.70;99.90;;;;;;5051666;28;20328;-53
2021/08/10 09:01:43;;;;;;;;;;;20.70;99.90;;;;;;5051734;28;19909;-54
2021/08/10 09:04:08;;;;;;;;;;;20.90;99.90;;;;;;5051791;28;19911;-55
2021/08/10 09:06:34;;;;;;;;;;;20.50;99.90;;;;;;5051830;28;19948;-54
2021/08/10 09:09:18;;;;;;;;;;;20.40;99.90;;;;;;5051872;28;19904;-54
2021/08/10 09:11:47;;;;;;;;;;;20.50;99.90;;;;;;5051778;28;20003;-53
2021/08/10 09:14:12;;;;;;;;;;;20.30;99.90;;;;;;5050556;28;20003;-54
2021/08/10 09:16:38;;;;;;;;;;;20.20;99.90;;;;;;5051736;28;20428;-54
2021/08/10 09:19:05;;;;;;;;;;;20.20;99.90;;;;;;5051648;28;19951;-54
2021/08/10 09:21:33;;;;;;;;;;;20.00;99.90;;;;;;5051385;28;19939;-54
2021/08/10 09:23:59;;;;;;;;;;;19.80;99.90;;;;;;5051954;28;19912;-53
2021/08/10 09:26:30;;;;;;;;;;;19.80;99.90;;;;;;5055293;28;19905;-54
2021/08/10 09:28:57;;;;;;;;;;;19.80;99.90;;;;;;5054330;28;19935;-54
2021/08/10 09:31:32;;;;;;;;;;;19.90;99.90;;;;;;5055438;28;20150;-54
2021/08/10 09:33:59;;;;;;;;;;;19.70;99.90;;;;;;5055443;28;19951;-54
2021/08/10 09:36:25;;;;;;;;;;;19.80;99.90;;;;;;5055424;28;19915;-54
2021/08/10 09:38:50;;;;;;;;;;;20.00;99.90;;;;;;5055533;28;19905;-54
2021/08/10 09:41:16;;;;;;;;;;;19.80;99.90;;;;;;5055034;28;19917;-54
2021/08/10 09:43:41;;;;;;;;;;;19.70;99.90;;;;;;5054145;28;19904;-54
2021/08/10 09:46:14;;;;;;;;;;;19.60;99.90;;;;;;5055115;28;19994;-54
2021/08/10 09:48:41;;;;;;;;;;;19.70;99.90;;;;;;5054900;28;19905;-54
2021/08/10 09:51:14;;;;;;;;;;;20.00;99.90;;;;;;5055308;28;19999;-53
2021/08/10 09:53:40;;;;;;;;;;;20.10;99.90;;;;;;5055482;28;19917;-54
2021/08/10 09:56:06;;;;;;;;;;;20.10;99.90;;;;;;5054650;28;20090;-54
2021/08/10 09:58:51;;;;;;;;;;;20.50;99.90;;;;;;5055220;28;20007;-54
2021/08/10 10:01:33;;;;;;;;;;;21.50;99.90;;;;;;5055392;28;20304;-54
2021/08/10 10:04:12;;;;;;;;;;;22.00;99.90;;;;;;5055257;28;20378;-56
2021/08/10 10:06:39;;;;;;;;;;;22.40;99.90;;;;;;5055138;28;20269;-55
2021/08/10 10:09:04;;;;;;;;;;;22.50;99.90;;;;;;5054951;28;19905;-55
2021/08/10 10:11:32;;;;;;;;;;;22.40;99.90;;;;;;5055136;28;19912;-54
2021/08/10 10:13:58;;;;;;;;;;;21.90;99.90;;;;;;5054899;28;19912;-53
2021/08/10 10:16:24;;;;;;;;;;;21.40;99.90;;;;;;5054521;28;19909;-54
2021/08/10 10:18:51;;;;;;;;;;;21.30;99.90;;;;;;5054733;28;20358;-55
2021/08/10 10:21:21;;;;;;;;;;;21.10;99.90;;;;;;5054602;28;19947;-53
2021/08/10 10:23:48;;;;;;;;;;;21.10;99.90;;;;;;5054748;28;19969;-54
2021/08/10 10:26:13;;;;;;;;;;;20.70;99.90;;;;;;5054512;28;19912;-54
2021/08/10 10:28:39;;;;;;;;;;;20.60;99.90;;;;;;5054488;28;19905;-54
2021/08/10 10:31:05;;;;;;;;;;;20.30;99.90;;;;;;5054262;28;19911;-53
2021/08/10 10:33:30;;;;;;;;;;;20.00;99.90;;;;;;5054153;28;19995;-53
2021/08/10 10:35:58;;;;;;;;;;;19.90;99.90;;;;;;5052740;28;20422;-54
2021/08/10 10:38:24;;;;;;;;;;;20.00;99.90;;;;;;5053121;28;20308;-53
2021/08/10 10:40:52;;;;;;;;;;;20.10;99.90;;;;;;5054375;28;19905;-54
2021/08/10 10:43:22;;;;;;;;;;;20.10;99.90;;;;;;5054361;28;19999;-54
2021/08/10 10:45:47;;;;;;;;;;;20.10;99.90;;;;;;5052290;28;19904;-54
2021/08/10 10:48:22;;;;;;;;;;;20.10;99.90;;;;;;5052738;28;19911;-54
2021/08/10 10:51:03;;;;;;;;;;;19.90;99.90;;;;;;5054031;28;19909;-54
2021/08/10 10:53:29;;;;;;;;;;;19.90;99.90;;;;;;5054114;28;19924;-53
2021/08/10 10:55:55;;;;;;;;;;;20.10;99.90;;;;;;5053949;28;19905;-53
2021/08/10 10:58:24;;;;;;;;;;;20.10;99.90;;;;;;5053713;28;19905;-52
2021/08/10 11:01:08;;;;;;;;;;;20.20;99.90;;;;;;5053633;28;19944;-53
2021/08/10 11:03:34;;;;;;;;;;;20.10;99.90;;;;;;5053543;28;19926;-53
2021/08/10 11:06:19;;;;;;;;;;;20.00;99.90;;;;;;5053317;28;19992;-56
2021/08/10 11:08:45;;;;;;;;;;;20.00;99.90;;;;;;5053078;28;19944;-53
2021/08/10 11:11:30;;;;;;;;;;;20.10;99.90;;;;;;5053395;28;19975;-54
2021/08/10 11:13:56;;;;;;;;;;;20.70;99.90;;;;;;5053360;28;19905;-53
2021/08/10 11:16:21;;;;;;;;;;;21.50;99.90;;;;;;5053616;28;19962;-54
2021/08/10 11:18:48;;;;;;;;;;;22.40;99.90;;;;;;5053798;28;19909;-54
2021/08/10 11:21:14;;;;;;;;;;;23.00;99.90;;;;;;5053496;28;19959;-54
2021/08/10 11:23:40;;;;;;;;;;;22.70;99.90;;;;;;5054019;28;20001;-54
2021/08/10 11:26:05;;;;;;;;;;;22.70;99.90;;;;;;5053101;28;20380;-54
2021/08/10 11:28:32;;;;;;;;;;;22.70;99.90;;;;;;5052923;28;19991;-56
2021/08/10 11:30:59;;;;;;;;;;;22.40;99.90;;;;;;5052786;28;19958;-54
2021/08/10 11:33:33;;;;;;;;;;;22.00;99.90;;;;;;5053243;28;19959;-54
2021/08/10 11:38:37;;;;;;;;;;;21.80;99.90;;;;;;5052848;28;19938;-55
2021/08/10 11:41:03;;;;;;;;;;;21.70;99.90;;;;;;5053576;28;19905;-58
2021/08/10 11:43:45;;;;;;;;;;;21.50;99.90;;;;;;5053202;28;19915;-57
2021/08/10 11:46:15;;;;;;;;;;;21.60;99.90;;;;;;5044734;28;19909;-56
2021/08/10 11:48:42;;;;;;;;;;;21.40;99.90;;;;;;5051798;28;19948;-56
2021/08/10 11:51:25;;;;;;;;;;;21.30;99.90;;;;;;5042332;28;19928;-56
2021/08/10 11:54:06;;;;;;;;;;;21.00;99.90;;;;;;5033189;28;19921;-55
2021/08/10 11:56:34;;;;;;;;;;;21.00;99.90;;;;;;5033299;28;19908;-55
2021/08/10 11:59:00;;;;;;;;;;;20.90;99.90;;;;;;5032737;28;19905;-57
2021/08/10 12:01:27;;;;;;;;;;;20.90;99.90;;;;;;5042711;28;19932;-57
2021/08/10 12:03:53;;;;;;;;;;;21.40;99.90;;;;;;5045859;28;19951;-57
2021/08/10 12:06:26;;;;;;;;;;;21.90;99.90;;;;;;5052136;28;20342;-56
2021/08/10 12:08:51;;;;;;;;;;;22.50;99.90;;;;;;5053736;28;20251;-56
2021/08/10 12:11:21;;;;;;;;;;;22.70;99.90;;;;;;5047978;28;19943;-56
2021/08/10 12:13:47;;;;;;;;;;;23.00;99.90;;;;;;5038029;28;20003;-55
2021/08/10 12:16:12;;;;;;;;;;;23.00;99.90;;;;;;5050742;28;19996;-55
2021/08/10 12:18:48;;;;;;;;;;;23.10;99.90;;;;;;5047797;28;19913;-55
2021/08/10 12:21:14;;;;;;;;;;;23.20;99.90;;;;;;5034220;28;20380;-54
2021/08/10 12:23:41;;;;;;;;;;;23.20;99.90;;;;;;5045634;28;19909;-55
2021/08/10 12:26:08;;;;;;;;;;;23.40;99.90;;;;;;5038244;28;19913;-55
2021/08/10 12:28:33;;;;;;;;;;;23.00;99.90;;;;;;5034261;28;20361;-55
2021/08/10 12:31:01;;;;;;;;;;;22.90;99.90;;;;;;5032940;28;19947;-54
2021/08/10 12:33:26;;;;;;;;;;;22.80;99.90;;;;;;5032602;28;20338;-54
2021/08/10 12:36:10;;;;;;;;;;;22.70;99.90;;;;;;5032090;28;19970;-54
2021/08/10 12:38:36;;;;;;;;;;;22.40;99.90;;;;;;5032520;28;19908;-55
2021/08/10 12:41:02;;;;;;;;;;;22.30;99.90;;;;;;5031871;28;19905;-58
2021/08/10 12:43:28;;;;;;;;;;;22.20;99.90;;;;;;5032272;28;19912;-61
2021/08/10 12:45:53;;;;;;;;;;;22.00;99.90;;;;;;5032768;28;19905;-61
2021/08/10 12:48:23;;;;;;;;;;;22.00;99.90;;;;;;5032054;28;19909;-59
2021/08/10 12:50:59;;;;;;;;;;;21.70;99.90;;;;;;5032474;28;19909;-59
2021/08/10 12:53:29;;;;;;;;;;;21.30;99.90;;;;;;5030900;28;19924;-61
2021/08/10 12:55:55;;;;;;;;;;;21.00;99.90;;;;;;5032247;28;19905;-61
2021/08/10 12:58:21;;;;;;;;;;;20.70;99.90;;;;;;5033579;28;19912;-63
2021/08/10 13:00:59;;;;;;;;;;;20.30;99.90;;;;;;5042218;28;19913;-62
2021/08/10 13:03:24;;;;;;;;;;;19.90;99.90;;;;;;5037541;28;19912;-62
2021/08/10 13:05:50;;;;;;;;;;;19.50;99.90;;;;;;5038591;28;20255;-64
2021/08/10 13:08:16;;;;;;;;;;;19.20;99.90;;;;;;5037043;28;20129;-63
2021/08/10 13:10:42;;;;;;;;;;;19.00;99.90;;;;;;5038991;28;19913;-61
2021/08/10 13:15:50;;;;;;;;;;;19.00;99.90;;;;;;5061633;28;19920;-80
2021/08/10 13:18:26;;;;;;;;;;;19.10;99.90;;;;;;5060471;28;19924;-82
2021/08/10 13:20:57;;;;;;;;;;;20.20;99.90;;;;;;5062833;28;19928;-82
2021/08/10 13:23:23;;;;;;;;;;;21.60;99.90;;;;;;5063905;28;19991;-83
2021/08/10 13:26:08;;;;;;;;;;;22.10;99.90;;;;;;5062868;28;19905;-82
2021/08/10 13:28:33;;;;;;;;;;;22.20;99.90;;;;;;5062552;28;19904;-81
2021/08/10 13:31:14;;;;;;;;;;;22.90;99.90;;;;;;5063861;28;19979;-82
2021/08/10 13:33:49;;;;;;;;;;;22.90;99.90;;;;;;5064250;28;19911;-82
2021/08/10 13:36:14;;;;;;;;;;;22.50;99.90;;;;;;5062778;28;20007;-82
2021/08/10 13:38:40;;;;;;;;;;;22.10;99.90;;;;;;5059707;28;19939;-81
2021/08/10 13:41:05;;;;;;;;;;;22.10;99.90;;;;;;5061410;28;19972;-81
2021/08/10 13:43:31;;;;;;;;;;;23.20;99.90;;;;;;5062989;28;19995;-82
2021/08/10 13:45:56;;;;;;;;;;;23.90;99.90;;;;;;5063295;28;19911;-82
2021/08/10 13:48:22;;;;;;;;;;;23.90;99.90;;;;;;5062955;28;19905;-82
2021/08/10 13:50:47;;;;;;;;;;;24.40;99.90;;;;;;5079346;28;19912;-81
2021/08/10 13:53:13;;;;;;;;;;;24.40;99.90;;;;;;5059686;28;19954;-82
2021/08/10 13:55:39;;;;;;;;;;;23.90;99.90;;;;;;5060065;28;20184;-82
2021/08/10 13:58:05;;;;;;;;;;;23.40;99.90;;;;;;5059753;28;20021;-82
2021/08/10 14:00:30;;;;;;;;;;;23.10;99.90;;;;;;5058717;28;20362;-81
2021/08/10 14:02:56;;;;;;;;;;;23.00;99.90;;;;;;5060349;28;20007;-80
2021/08/10 14:05:24;;;;;;;;;;;23.20;99.90;;;;;;5060333;28;19944;-82
2021/08/10 14:07:50;;;;;;;;;;;24.80;99.90;;;;;;5063162;28;19927;-82
2021/08/10 14:10:15;;;;;;;;;;;25.50;99.90;;;;;;5058788;28;19912;-82
2021/08/10 14:12:41;;;;;;;;;;;25.50;99.90;;;;;;5055715;28;19954;-82
2021/08/10 14:15:07;;;;;;;;;;;25.40;99.90;;;;;;5058982;28;19923;-81
2021/08/10 14:17:33;;;;;;;;;;;24.70;99.90;;;;;;5057225;28;19909;-81
2021/08/10 14:19:59;;;;;;;;;;;24.30;99.90;;;;;;5059180;28;19905;-81